Terminal Aerodrome Forecast
Issued by NWS Sioux Falls, SD

Home | Current Version | Previous Version | Graphics & Text | Print | Product List | Glossary Off
Versions: 1 2 3 4 5 6 7 8 9 10 11 12 13 14 15 16 17

000
FTUS43 KFSD 202322
TAFHON
TAF
KHON 202322Z 2100/2124 15008KT 6SM BR BKN040
     FM210400 17006KT 4SM BR OVC015
      TEMPO 2108/2112 1SM BR OVC008
     FM211700 29006KT 5SM BR OVC010
     FM211900 29006KT P6SM OVC015
     FM212100 29006KT P6SM OVC025=

USA.gov is the U.S. government's official web portal to all federal, state and local government web resources and services.